<?xml version="1.0" encoding="UTF-8" standalone="no" ?>
<gpx xmlns="http://www.topografix.com/GPX/1/1" xmlns:xsi="http://www.w3.org/2001/XMLSchema-instance" xsi:schemaLocation="http://www.topografix.com/GPX/1/1 http://www.topografix.com/GPX/1/1/gpx.xsd" version="1.1" creator="VisuGPX - https://www.visugpx.com">
  <metadata>
    <name>Bogny-sur-Meuse</name>
  </metadata>
  <trk>
    <name><![CDATA[Bogny-sur-Meuse_1]]></name>
    <trkseg>
      <trkpt lat="49.85881" lon="4.76342">
        <ele>160.7</ele>
        <time>2021-04-22T11:04:22Z</time>
      </trkpt>
      <trkpt lat="49.85875" lon="4.76336">
        <ele>164.4</ele>
        <time>2021-04-22T11:04:22Z</time>
      </trkpt>
      <trkpt lat="49.85884" lon="4.76332">
        <ele>153.6</ele>
        <time>2021-04-22T11:04:25Z</time>
      </trkpt>
      <trkpt lat="49.85889" lon="4.76331">
        <ele>155.2</ele>
        <time>2021-04-22T11:04:28Z</time>
      </trkpt>
      <trkpt lat="49.85884" lon="4.76331">
        <ele>141.3</ele>
        <time>2021-04-22T11:04:34Z</time>
      </trkpt>
      <trkpt lat="49.85881" lon="4.76339">
        <ele>140.4</ele>
        <time>2021-04-22T11:04:39Z</time>
      </trkpt>
      <trkpt lat="49.85877" lon="4.76345">
        <ele>145</ele>
        <time>2021-04-22T11:04:43Z</time>
      </trkpt>
      <trkpt lat="49.85872" lon="4.76351">
        <ele>140</ele>
        <time>2021-04-22T11:04:47Z</time>
      </trkpt>
      <trkpt lat="49.85869" lon="4.76358">
        <ele>158.2</ele>
        <time>2021-04-22T11:04:51Z</time>
      </trkpt>
      <trkpt lat="49.85866" lon="4.76364">
        <ele>137.9</ele>
        <time>2021-04-22T11:04:57Z</time>
      </trkpt>
      <trkpt lat="49.85862" lon="4.76369">
        <ele>147.6</ele>
        <time>2021-04-22T11:05:01Z</time>
      </trkpt>
      <trkpt lat="49.85859" lon="4.76374">
        <ele>154.8</ele>
        <time>2021-04-22T11:05:05Z</time>
      </trkpt>
      <trkpt lat="49.85855" lon="4.76378">
        <ele>142</ele>
        <time>2021-04-22T11:05:09Z</time>
      </trkpt>
      <trkpt lat="49.8585" lon="4.76385">
        <ele>142.4</ele>
        <time>2021-04-22T11:05:13Z</time>
      </trkpt>
      <trkpt lat="49.85847" lon="4.76392">
        <ele>139.5</ele>
        <time>2021-04-22T11:05:16Z</time>
      </trkpt>
      <trkpt lat="49.85845" lon="4.76399">
        <ele>138.2</ele>
        <time>2021-04-22T11:05:20Z</time>
      </trkpt>
      <trkpt lat="49.85843" lon="4.76406">
        <ele>168.2</ele>
        <time>2021-04-22T11:05:26Z</time>
      </trkpt>
      <trkpt lat="49.85839" lon="4.7641">
        <ele>140.5</ele>
        <time>2021-04-22T11:05:29Z</time>
      </trkpt>
      <trkpt lat="49.85834" lon="4.76414">
        <ele>139.3</ele>
        <time>2021-04-22T11:05:33Z</time>
      </trkpt>
      <trkpt lat="49.8583" lon="4.7642">
        <ele>149.1</ele>
        <time>2021-04-22T11:05:38Z</time>
      </trkpt>
      <trkpt lat="49.85825" lon="4.76425">
        <ele>148</ele>
        <time>2021-04-22T11:05:43Z</time>
      </trkpt>
      <trkpt lat="49.85821" lon="4.7643">
        <ele>135.2</ele>
        <time>2021-04-22T11:05:48Z</time>
      </trkpt>
      <trkpt lat="49.85818" lon="4.76437">
        <ele>151.7</ele>
        <time>2021-04-22T11:05:54Z</time>
      </trkpt>
      <trkpt lat="49.85814" lon="4.76443">
        <ele>141.8</ele>
        <time>2021-04-22T11:05:58Z</time>
      </trkpt>
      <trkpt lat="49.85811" lon="4.76449">
        <ele>164.2</ele>
        <time>2021-04-22T11:06:02Z</time>
      </trkpt>
      <trkpt lat="49.85807" lon="4.76456">
        <ele>134.6</ele>
        <time>2021-04-22T11:06:06Z</time>
      </trkpt>
      <trkpt lat="49.85802" lon="4.7646">
        <ele>142.4</ele>
        <time>2021-04-22T11:06:11Z</time>
      </trkpt>
      <trkpt lat="49.85798" lon="4.76465">
        <ele>142.4</ele>
        <time>2021-04-22T11:06:15Z</time>
      </trkpt>
      <trkpt lat="49.85794" lon="4.76469">
        <ele>142.3</ele>
        <time>2021-04-22T11:06:19Z</time>
      </trkpt>
      <trkpt lat="49.85788" lon="4.76474">
        <ele>142.5</ele>
        <time>2021-04-22T11:06:25Z</time>
      </trkpt>
      <trkpt lat="49.85783" lon="4.76475">
        <ele>142.5</ele>
        <time>2021-04-22T11:06:28Z</time>
      </trkpt>
      <trkpt lat="49.85779" lon="4.76477">
        <ele>142.5</ele>
        <time>2021-04-22T11:06:32Z</time>
      </trkpt>
      <trkpt lat="49.85744" lon="4.76532">
        <ele>163.5</ele>
        <time>2021-04-22T11:07:04Z</time>
      </trkpt>
      <trkpt lat="49.85739" lon="4.76537">
        <ele>157.4</ele>
        <time>2021-04-22T11:07:09Z</time>
      </trkpt>
      <trkpt lat="49.85735" lon="4.76542">
        <ele>157.3</ele>
        <time>2021-04-22T11:07:16Z</time>
      </trkpt>
      <trkpt lat="49.85651" lon="4.76664">
        <ele>186.7</ele>
        <time>2021-04-22T11:08:43Z</time>
      </trkpt>
      <trkpt lat="49.8565" lon="4.76673">
        <ele>168.3</ele>
        <time>2021-04-22T11:08:47Z</time>
      </trkpt>
      <trkpt lat="49.85645" lon="4.76675">
        <ele>167.9</ele>
        <time>2021-04-22T11:08:58Z</time>
      </trkpt>
      <trkpt lat="49.8564" lon="4.76677">
        <ele>141</ele>
        <time>2021-04-22T11:09:01Z</time>
      </trkpt>
      <trkpt lat="49.85635" lon="4.76684">
        <ele>141</ele>
        <time>2021-04-22T11:09:08Z</time>
      </trkpt>
      <trkpt lat="49.85632" lon="4.76689">
        <ele>141</ele>
        <time>2021-04-22T11:09:12Z</time>
      </trkpt>
      <trkpt lat="49.8564" lon="4.76682">
        <ele>141</ele>
        <time>2021-04-22T11:09:17Z</time>
      </trkpt>
      <trkpt lat="49.8562" lon="4.76708">
        <ele>167.7</ele>
        <time>2021-04-22T11:10:12Z</time>
      </trkpt>
      <trkpt lat="49.85625" lon="4.76709">
        <ele>155.3</ele>
        <time>2021-04-22T11:10:25Z</time>
      </trkpt>
      <trkpt lat="49.8563" lon="4.76709">
        <ele>160.1</ele>
        <time>2021-04-22T11:10:28Z</time>
      </trkpt>
      <trkpt lat="49.85635" lon="4.76707">
        <ele>171.5</ele>
        <time>2021-04-22T11:10:32Z</time>
      </trkpt>
      <trkpt lat="49.8564" lon="4.76706">
        <ele>159.9</ele>
        <time>2021-04-22T11:10:37Z</time>
      </trkpt>
      <trkpt lat="49.85645" lon="4.76703">
        <ele>163.1</ele>
        <time>2021-04-22T11:10:41Z</time>
      </trkpt>
      <trkpt lat="49.85651" lon="4.76699">
        <ele>164.4</ele>
        <time>2021-04-22T11:10:44Z</time>
      </trkpt>
      <trkpt lat="49.85656" lon="4.76695">
        <ele>158.4</ele>
        <time>2021-04-22T11:10:49Z</time>
      </trkpt>
      <trkpt lat="49.85661" lon="4.76693">
        <ele>145.7</ele>
        <time>2021-04-22T11:10:52Z</time>
      </trkpt>
      <trkpt lat="49.85665" lon="4.76688">
        <ele>170</ele>
        <time>2021-04-22T11:10:56Z</time>
      </trkpt>
      <trkpt lat="49.85671" lon="4.76687">
        <ele>167.5</ele>
        <time>2021-04-22T11:11:00Z</time>
      </trkpt>
      <trkpt lat="49.85675" lon="4.76684">
        <ele>154</ele>
        <time>2021-04-22T11:11:05Z</time>
      </trkpt>
      <trkpt lat="49.8568" lon="4.76682">
        <ele>154</ele>
        <time>2021-04-22T11:11:09Z</time>
      </trkpt>
      <trkpt lat="49.85684" lon="4.7668">
        <ele>154</ele>
        <time>2021-04-22T11:11:12Z</time>
      </trkpt>
      <trkpt lat="49.85869" lon="4.76653">
        <ele>229.5</ele>
        <time>2021-04-22T11:21:43Z</time>
      </trkpt>
      <trkpt lat="49.85872" lon="4.76659">
        <ele>205</ele>
        <time>2021-04-22T11:21:49Z</time>
      </trkpt>
      <trkpt lat="49.85877" lon="4.7666">
        <ele>189.6</ele>
        <time>2021-04-22T11:21:56Z</time>
      </trkpt>
      <trkpt lat="49.85884" lon="4.76659">
        <ele>207.7</ele>
        <time>2021-04-22T11:22:01Z</time>
      </trkpt>
      <trkpt lat="49.85889" lon="4.76661">
        <ele>207.7</ele>
        <time>2021-04-22T11:22:06Z</time>
      </trkpt>
      <trkpt lat="49.85894" lon="4.76663">
        <ele>207.7</ele>
        <time>2021-04-22T11:22:11Z</time>
      </trkpt>
      <trkpt lat="49.85899" lon="4.76664">
        <ele>207.7</ele>
        <time>2021-04-22T11:22:15Z</time>
      </trkpt>
      <trkpt lat="49.85904" lon="4.76665">
        <ele>207.7</ele>
        <time>2021-04-22T11:22:19Z</time>
      </trkpt>
      <trkpt lat="49.8591" lon="4.76667">
        <ele>207.7</ele>
        <time>2021-04-22T11:22:23Z</time>
      </trkpt>
      <trkpt lat="49.85917" lon="4.76668">
        <ele>207.7</ele>
        <time>2021-04-22T11:22:28Z</time>
      </trkpt>
      <trkpt lat="49.85921" lon="4.76669">
        <ele>207.7</ele>
        <time>2021-04-22T11:22:33Z</time>
      </trkpt>
      <trkpt lat="49.85926" lon="4.76671">
        <ele>207.7</ele>
        <time>2021-04-22T11:22:36Z</time>
      </trkpt>
      <trkpt lat="49.86292" lon="4.77855">
        <ele>326.7</ele>
        <time>2021-04-22T11:56:46Z</time>
      </trkpt>
      <trkpt lat="49.86294" lon="4.77876">
        <ele>346.8</ele>
        <time>2021-04-22T11:56:48Z</time>
      </trkpt>
      <trkpt lat="49.86288" lon="4.77876">
        <ele>328.5</ele>
        <time>2021-04-22T11:56:50Z</time>
      </trkpt>
      <trkpt lat="49.86289" lon="4.77868">
        <ele>316.6</ele>
        <time>2021-04-22T11:56:54Z</time>
      </trkpt>
      <trkpt lat="49.8629" lon="4.77861">
        <ele>333.2</ele>
        <time>2021-04-22T11:56:58Z</time>
      </trkpt>
      <trkpt lat="49.8635" lon="4.77827">
        <ele>313.8</ele>
        <time>2021-04-22T11:58:03Z</time>
      </trkpt>
      <trkpt lat="49.86358" lon="4.77827">
        <ele>329</ele>
        <time>2021-04-22T11:58:07Z</time>
      </trkpt>
      <trkpt lat="49.86362" lon="4.7783">
        <ele>316.6</ele>
        <time>2021-04-22T11:58:13Z</time>
      </trkpt>
      <trkpt lat="49.86367" lon="4.77832">
        <ele>295.6</ele>
        <time>2021-04-22T11:58:17Z</time>
      </trkpt>
      <trkpt lat="49.86362" lon="4.77836">
        <ele>323</ele>
        <time>2021-04-22T11:58:51Z</time>
      </trkpt>
      <trkpt lat="49.86359" lon="4.77841">
        <ele>323</ele>
        <time>2021-04-22T11:58:59Z</time>
      </trkpt>
      <trkpt lat="49.86354" lon="4.77847">
        <ele>323</ele>
        <time>2021-04-22T11:59:05Z</time>
      </trkpt>
      <trkpt lat="49.8635" lon="4.77851">
        <ele>323</ele>
        <time>2021-04-22T11:59:10Z</time>
      </trkpt>
      <trkpt lat="49.86212" lon="4.77696">
        <ele>328.9</ele>
        <time>2021-04-22T12:02:21Z</time>
      </trkpt>
      <trkpt lat="49.86208" lon="4.77696">
        <ele>325.2</ele>
        <time>2021-04-22T12:02:34Z</time>
      </trkpt>
      <trkpt lat="49.86202" lon="4.77696">
        <ele>323.3</ele>
        <time>2021-04-22T12:02:38Z</time>
      </trkpt>
      <trkpt lat="49.86197" lon="4.77696">
        <ele>336.5</ele>
        <time>2021-04-22T12:02:43Z</time>
      </trkpt>
      <trkpt lat="49.86192" lon="4.77696">
        <ele>336.5</ele>
        <time>2021-04-22T12:02:49Z</time>
      </trkpt>
      <trkpt lat="49.86186" lon="4.77695">
        <ele>336.5</ele>
        <time>2021-04-22T12:02:53Z</time>
      </trkpt>
      <trkpt lat="49.86199" lon="4.77696">
        <ele>336.5</ele>
        <time>2021-04-22T12:03:07Z</time>
      </trkpt>
      <trkpt lat="49.85736" lon="4.7694">
        <ele>230.7</ele>
        <time>2021-04-22T12:17:18Z</time>
      </trkpt>
      <trkpt lat="49.85738" lon="4.76934">
        <ele>241.3</ele>
        <time>2021-04-22T12:17:30Z</time>
      </trkpt>
      <trkpt lat="49.85739" lon="4.76927">
        <ele>242.8</ele>
        <time>2021-04-22T12:17:35Z</time>
      </trkpt>
      <trkpt lat="49.85743" lon="4.7692">
        <ele>242.8</ele>
        <time>2021-04-22T12:17:41Z</time>
      </trkpt>
      <trkpt lat="49.85972" lon="4.76559">
        <ele>163.9</ele>
        <time>2021-04-22T12:25:46Z</time>
      </trkpt>
      <trkpt lat="49.85967" lon="4.76552">
        <ele>166.1</ele>
        <time>2021-04-22T12:25:48Z</time>
      </trkpt>
      <trkpt lat="49.85961" lon="4.76543">
        <ele>129.9</ele>
        <time>2021-04-22T12:26:29Z</time>
      </trkpt>
      <trkpt lat="49.85956" lon="4.76525">
        <ele>151.6</ele>
        <time>2021-04-22T12:26:30Z</time>
      </trkpt>
      <trkpt lat="49.85952" lon="4.76516">
        <ele>157.4</ele>
        <time>2021-04-22T12:26:32Z</time>
      </trkpt>
      <trkpt lat="49.85949" lon="4.76502">
        <ele>142.7</ele>
        <time>2021-04-22T12:26:34Z</time>
      </trkpt>
      <trkpt lat="49.85948" lon="4.76494">
        <ele>162.9</ele>
        <time>2021-04-22T12:26:39Z</time>
      </trkpt>
      <trkpt lat="49.85946" lon="4.76488">
        <ele>160.4</ele>
        <time>2021-04-22T12:26:48Z</time>
      </trkpt>
      <trkpt lat="49.85942" lon="4.7648">
        <ele>159.5</ele>
        <time>2021-04-22T12:26:53Z</time>
      </trkpt>
      <trkpt lat="49.85941" lon="4.76472">
        <ele>144.9</ele>
        <time>2021-04-22T12:27:02Z</time>
      </trkpt>
      <trkpt lat="49.85943" lon="4.76464">
        <ele>143.5</ele>
        <time>2021-04-22T12:27:06Z</time>
      </trkpt>
      <trkpt lat="49.85941" lon="4.76456">
        <ele>161.1</ele>
        <time>2021-04-22T12:27:11Z</time>
      </trkpt>
      <trkpt lat="49.85938" lon="4.7645">
        <ele>161.1</ele>
        <time>2021-04-22T12:27:16Z</time>
      </trkpt>
      <trkpt lat="49.85924" lon="4.76413">
        <ele>161.4</ele>
        <time>2021-04-22T12:27:57Z</time>
      </trkpt>
      <trkpt lat="49.85917" lon="4.76403">
        <ele>147.4</ele>
        <time>2021-04-22T12:27:59Z</time>
      </trkpt>
    </trkseg>
  </trk>
</gpx>